createdAt,value
2022-09-12T00:01:14.760Z,13.10
2022-09-12T00:03:42.776Z,13.00
2022-09-12T00:06:16.361Z,13.00
2022-09-12T00:08:46.796Z,13.00
2022-09-12T00:11:14.584Z,13.00
2022-09-12T00:13:42.922Z,13.00
2022-09-12T00:16:19.466Z,13.00
2022-09-12T00:18:47.329Z,13.00
2022-09-12T00:21:15.581Z,13.00
2022-09-12T00:23:43.302Z,13.00
2022-09-12T00:26:11.326Z,13.00
2022-09-12T00:28:40.463Z,12.90
2022-09-12T00:31:10.533Z,12.90
2022-09-12T00:33:38.233Z,12.90
2022-09-12T00:36:25.516Z,12.90
2022-09-12T00:38:54.756Z,12.80
2022-09-12T00:41:28.463Z,12.80
2022-09-12T00:43:59.873Z,12.70
2022-09-12T00:46:48.836Z,12.70
2022-09-12T00:49:37.885Z,12.70
2022-09-12T00:52:08.551Z,12.60
2022-09-12T00:54:43.110Z,12.60
2022-09-12T00:57:13.355Z,12.60
2022-09-12T00:59:52.233Z,12.50
2022-09-12T01:02:19.521Z,12.50
2022-09-12T01:04:48.063Z,12.50
2022-09-12T01:07:15.723Z,12.50
2022-09-12T01:09:45.490Z,12.50
2022-09-12T01:12:15.263Z,12.50
2022-09-12T01:14:43.055Z,12.50
2022-09-12T01:17:15.173Z,12.50
2022-09-12T01:20:04.837Z,12.50
2022-09-12T01:22:38.117Z,12.40
2022-09-12T01:25:34.087Z,12.40
2022-09-12T01:28:30.458Z,12.40
2022-09-12T01:31:07.921Z,12.30
2022-09-12T01:33:46.850Z,12.30
2022-09-12T01:36:59.456Z,12.40
2022-09-12T01:39:52.302Z,12.40
2022-09-12T01:42:53.006Z,12.40
2022-09-12T01:45:25.650Z,12.40
2022-09-12T01:48:15.604Z,12.40
2022-09-12T01:51:13.650Z,12.30
2022-09-12T01:53:48.908Z,12.30
2022-09-12T01:56:22.193Z,12.30
2022-09-12T01:59:25.124Z,12.30
2022-09-12T02:01:58.602Z,12.20
2022-09-12T02:04:34.084Z,12.20
2022-09-12T02:07:07.293Z,12.10
2022-09-12T02:09:53.091Z,12.10
2022-09-12T02:12:25.846Z,12.10
2022-09-12T02:14:59.713Z,12.00
2022-09-12T02:17:28.093Z,12.00
2022-09-12T02:20:14.597Z,11.90
2022-09-12T02:22:50.644Z,11.90
2022-09-12T02:25:20.203Z,11.90
2022-09-12T02:27:53.681Z,11.90
2022-09-12T02:30:22.323Z,11.90
2022-09-12T02:33:10.514Z,11.90
2022-09-12T02:36:22.360Z,11.90
2022-09-12T02:38:50.271Z,12.00
2022-09-12T02:41:20.848Z,12.00
2022-09-12T02:43:50.668Z,12.00
2022-09-12T02:46:29.406Z,11.90
2022-09-12T02:48:57.173Z,11.90
2022-09-12T02:51:25.630Z,11.90
2022-09-12T02:53:54.018Z,11.90
2022-09-12T02:56:27.387Z,12.00
2022-09-12T02:58:59.924Z,11.90
2022-09-12T03:01:59.941Z,11.90
2022-09-12T03:04:45.672Z,11.90
2022-09-12T03:07:31.666Z,11.90
2022-09-12T03:10:31.161Z,11.80
2022-09-12T03:13:30.917Z,11.80
2022-09-12T03:16:06.870Z,11.80
2022-09-12T03:19:11.281Z,11.80
2022-09-12T03:21:47.843Z,11.80
2022-09-12T03:24:35.927Z,11.80
2022-09-12T03:27:21.875Z,11.80
2022-09-12T03:29:50.773Z,11.80
2022-09-12T03:32:18.131Z,11.80
2022-09-12T03:34:45.467Z,11.80
2022-09-12T03:37:12.765Z,11.70
2022-09-12T03:39:40.012Z,11.70
2022-09-12T03:42:07.741Z,11.60
2022-09-12T03:44:34.904Z,11.60
2022-09-12T03:47:02.555Z,11.50
2022-09-12T03:49:29.941Z,11.50
2022-09-12T03:51:57.207Z,11.40
2022-09-12T03:54:24.547Z,11.40
2022-09-12T03:56:51.733Z,11.40
2022-09-12T03:59:19.016Z,11.40
2022-09-12T04:01:46.429Z,11.30
2022-09-12T04:04:13.750Z,11.30
2022-09-12T04:06:42.201Z,11.30
2022-09-12T04:09:09.565Z,11.30
2022-09-12T04:11:37.088Z,11.40
2022-09-12T04:14:04.418Z,11.40
2022-09-12T04:16:32.536Z,11.40
2022-09-12T04:18:59.828Z,11.40
2022-09-12T04:21:27.057Z,11.40
2022-09-12T04:23:54.588Z,11.50
2022-09-12T04:26:21.789Z,11.50
2022-09-12T04:28:53.815Z,11.50
2022-09-12T04:31:22.764Z,11.50
2022-09-12T04:34:01.462Z,11.50
2022-09-12T04:36:29.631Z,11.50
2022-09-12T04:38:56.896Z,11.50
2022-09-12T04:41:27.436Z,11.50
2022-09-12T04:44:02.477Z,11.60
2022-09-12T04:46:33.030Z,11.70
2022-09-12T04:49:00.575Z,11.70
2022-09-12T04:51:31.063Z,11.70
2022-09-12T04:54:01.814Z,11.80
2022-09-12T04:56:30.422Z,11.80
2022-09-12T04:58:59.608Z,11.80
2022-09-12T05:01:28.350Z,11.90
2022-09-12T05:03:56.351Z,11.90
2022-09-12T05:06:26.522Z,11.90
2022-09-12T05:08:54.764Z,12.00
2022-09-12T05:11:28.236Z,12.00
2022-09-12T05:14:00.579Z,12.00
2022-09-12T05:16:28.669Z,11.90
2022-09-12T05:18:58.463Z,11.90
2022-09-12T05:21:26.812Z,12.00
2022-09-12T05:23:56.072Z,12.00
2022-09-12T05:26:24.228Z,12.00
2022-09-12T05:28:52.644Z,12.00
2022-09-12T05:31:25.121Z,12.00
2022-09-12T05:33:54.477Z,12.10
2022-09-12T05:36:31.841Z,12.10
2022-09-12T05:39:02.542Z,12.10
2022-09-12T05:41:31.644Z,12.20
2022-09-12T05:44:01.179Z,12.20
2022-09-12T05:46:30.652Z,12.20
2022-09-12T05:49:02.862Z,12.30
2022-09-12T05:51:33.501Z,12.30
2022-09-12T05:54:03.387Z,12.40
2022-09-12T05:56:33.611Z,12.50
2022-09-12T05:59:03.586Z,12.60
2022-09-12T06:01:32.507Z,12.80
2022-09-12T06:04:01.791Z,12.90
2022-09-12T06:06:30.453Z,13.00
2022-09-12T06:09:01.493Z,13.10
2022-09-12T06:11:31.202Z,13.10
2022-09-12T06:14:00.169Z,13.20
2022-09-12T06:16:32.610Z,13.30
2022-09-12T06:19:02.307Z,13.40
2022-09-12T06:21:31.463Z,13.50
2022-09-12T06:23:59.407Z,13.50
2022-09-12T06:26:27.566Z,13.60
2022-09-12T06:28:56.381Z,13.70
2022-09-12T06:31:29.613Z,13.60
2022-09-12T06:33:59.916Z,13.60
2022-09-12T06:36:29.380Z,13.70
2022-09-12T06:38:59.213Z,13.70
2022-09-12T06:41:27.621Z,13.70
2022-09-12T06:43:55.174Z,13.80
2022-09-12T06:46:22.670Z,13.90
2022-09-12T06:48:50.648Z,14.00
2022-09-12T06:51:20.155Z,14.10
2022-09-12T06:53:48.834Z,14.10
2022-09-12T06:56:19.364Z,14.10
2022-09-12T06:58:48.228Z,14.00
2022-09-12T07:01:24.150Z,14.10
2022-09-12T07:03:54.291Z,14.00
2022-09-12T07:06:24.599Z,14.10
2022-09-12T07:08:52.521Z,14.10
2022-09-12T07:11:25.977Z,14.00
2022-09-12T07:13:55.334Z,13.90
2022-09-12T07:16:23.112Z,14.00
2022-09-12T07:18:55.355Z,14.00
2022-09-12T07:21:22.962Z,14.00
2022-09-12T07:23:52.064Z,14.10
2022-09-12T07:26:19.575Z,14.20
2022-09-12T07:28:53.530Z,14.40
2022-09-12T07:31:23.099Z,14.50
2022-09-12T07:33:54.335Z,14.60
2022-09-12T07:36:25.397Z,14.70
2022-09-12T07:38:57.740Z,14.90
2022-09-12T07:41:27.662Z,15.00
2022-09-12T07:43:56.928Z,15.10
2022-09-12T07:46:25.342Z,15.20
2022-09-12T07:48:54.210Z,15.30
2022-09-12T07:51:22.893Z,15.30
2022-09-12T07:53:51.877Z,15.40
2022-09-12T07:56:20.089Z,15.50
2022-09-12T07:58:47.796Z,15.70
2022-09-12T08:01:23.288Z,15.80
2022-09-12T08:03:54.590Z,15.80
2022-09-12T08:06:26.119Z,15.90
2022-09-12T08:08:55.265Z,16.10
2022-09-12T08:11:23.692Z,16.20
2022-09-12T08:13:55.439Z,16.30
2022-09-12T08:16:26.822Z,16.40
2022-09-12T08:18:54.247Z,16.50
2022-09-12T08:21:24.462Z,16.50
2022-09-12T08:24:03.931Z,16.60
2022-09-12T08:26:32.800Z,16.60
2022-09-12T08:29:00.559Z,16.80
2022-09-12T08:31:28.554Z,17.00
2022-09-12T08:33:57.066Z,17.10
2022-09-12T08:36:26.796Z,17.30
2022-09-12T08:39:00.483Z,17.40
2022-09-12T08:41:37.923Z,17.50
2022-09-12T08:44:42.461Z,17.60
2022-09-12T08:47:18.776Z,17.70
2022-09-12T08:49:45.931Z,17.80
2022-09-12T08:52:26.543Z,18.00
2022-09-12T08:54:56.508Z,18.00
2022-09-12T08:57:24.484Z,18.20
2022-09-12T08:59:53.081Z,18.30
2022-09-12T09:02:47.361Z,18.40
2022-09-12T09:05:44.153Z,18.50
2022-09-12T09:08:51.464Z,18.60
2022-09-12T09:11:40.970Z,18.70
2022-09-12T09:14:41.501Z,18.80
2022-09-12T09:17:15.984Z,18.90
2022-09-12T09:19:51.012Z,19.00
2022-09-12T09:22:36.281Z,19.10
2022-09-12T09:25:27.544Z,19.20
2022-09-12T09:28:06.231Z,19.40
2022-09-12T09:30:36.263Z,19.50
2022-09-12T09:33:06.537Z,19.60
2022-09-12T09:35:46.672Z,19.60
2022-09-12T09:38:13.818Z,19.70
2022-09-12T09:41:07.460Z,19.80
2022-09-12T09:43:34.708Z,20.00
2022-09-12T09:46:02.080Z,20.10
2022-09-12T09:48:33.937Z,20.20
2022-09-12T09:51:05.267Z,20.20
2022-09-12T09:53:48.473Z,20.30
2022-09-12T09:56:23.370Z,20.50
2022-09-12T09:58:50.747Z,20.70
2022-09-12T10:01:19.422Z,20.90
2022-09-12T10:03:55.304Z,21.10
2022-09-12T10:06:32.307Z,21.20
2022-09-12T10:09:21.295Z,21.10
2022-09-12T10:11:49.989Z,21.20
2022-09-12T10:14:35.202Z,21.20
2022-09-12T10:17:22.561Z,21.10
2022-09-12T10:20:10.658Z,21.20
2022-09-12T10:22:38.601Z,21.30
2022-09-12T10:25:13.189Z,21.80
2022-09-12T10:27:42.131Z,22.10
2022-09-12T10:30:19.545Z,22.30
2022-09-12T10:32:50.992Z,22.50
2022-09-12T10:35:24.550Z,22.50
2022-09-12T10:37:57.359Z,22.70
2022-09-12T10:40:31.762Z,23.00
2022-09-12T10:43:00.744Z,23.20
2022-09-12T10:45:35.641Z,23.20
2022-09-12T10:48:33.055Z,23.20
2022-09-12T10:51:01.423Z,23.60
2022-09-12T10:53:41.459Z,23.90
2022-09-12T10:56:18.987Z,24.00
2022-09-12T10:58:58.446Z,24.50
2022-09-12T11:01:45.040Z,24.70
2022-09-12T11:04:31.220Z,24.90
2022-09-12T11:07:29.643Z,24.90
2022-09-12T11:10:02.749Z,25.20
2022-09-12T11:13:14.821Z,25.60
2022-09-12T11:16:06.358Z,26.20
2022-09-12T11:18:45.151Z,26.80
2022-09-12T11:21:40.701Z,26.50
2022-09-12T11:24:28.593Z,25.70
2022-09-12T11:27:11.085Z,25.20
2022-09-12T11:29:55.313Z,25.00
2022-09-12T11:32:50.425Z,24.90
2022-09-12T11:35:30.949Z,25.00
2022-09-12T11:38:08.344Z,25.10
2022-09-12T11:40:54.431Z,25.80
2022-09-12T11:43:49.016Z,25.60
2022-09-12T11:46:22.901Z,25.20
2022-09-12T11:48:55.997Z,25.10
2022-09-12T11:51:32.160Z,25.40
2022-09-12T11:54:31.228Z,26.50
2022-09-12T11:57:09.137Z,26.40
2022-09-12T11:59:46.888Z,26.20
2022-09-12T12:02:28.058Z,26.10
2022-09-12T12:05:20.743Z,26.60
2022-09-12T12:07:57.348Z,27.60
2022-09-12T12:10:34.411Z,28.00
2022-09-12T12:13:13.351Z,28.00
2022-09-12T12:15:46.884Z,28.30
2022-09-12T12:18:26.382Z,28.40
2022-09-12T12:20:55.538Z,28.20
2022-09-12T12:23:34.857Z,27.80
2022-09-12T12:26:03.840Z,27.70
2022-09-12T12:28:59.269Z,27.80
2022-09-12T12:31:26.472Z,27.20
2022-09-12T12:34:00.408Z,27.40
2022-09-12T12:36:40.390Z,27.70
2022-09-12T12:39:32.794Z,27.90
2022-09-12T12:42:01.127Z,28.40
2022-09-12T12:44:47.362Z,28.40
2022-09-12T12:47:22.644Z,28.20
2022-09-12T12:50:14.664Z,27.10
2022-09-12T12:52:59.938Z,27.20
2022-09-12T12:55:33.337Z,27.70
2022-09-12T12:58:02.442Z,28.10
2022-09-12T13:00:36.250Z,28.20
2022-09-12T13:03:09.313Z,28.60
2022-09-12T13:05:49.402Z,29.00
2022-09-12T13:08:20.033Z,28.80
2022-09-12T13:10:51.851Z,28.60
2022-09-12T13:13:31.002Z,28.50
2022-09-12T13:15:58.850Z,28.60
2022-09-12T13:18:30.398Z,29.10
2022-09-12T13:21:15.520Z,29.50
2022-09-12T13:23:44.138Z,29.20
2022-09-12T13:26:23.181Z,29.30
2022-09-12T13:28:51.699Z,28.80
2022-09-12T13:31:25.970Z,28.70
2022-09-12T13:34:00.193Z,27.40
2022-09-12T13:36:39.260Z,27.30
2022-09-12T13:39:15.605Z,27.40
2022-09-12T13:42:13.266Z,27.20
2022-09-12T13:44:45.892Z,26.70
2022-09-12T13:47:30.855Z,26.90
2022-09-12T13:49:58.746Z,27.10
2022-09-12T13:52:29.946Z,27.70
2022-09-12T13:54:58.992Z,28.10
2022-09-12T13:57:41.352Z,28.10
2022-09-12T14:00:19.431Z,28.30
2022-09-12T14:02:50.301Z,28.30
2022-09-12T14:05:24.494Z,28.00
2022-09-12T14:07:54.475Z,27.80
2022-09-12T14:10:33.198Z,27.60
2022-09-12T14:13:02.922Z,27.60
2022-09-12T14:15:36.305Z,28.10
2022-09-12T14:18:05.272Z,28.60
2022-09-12T14:20:36.817Z,29.30
2022-09-12T14:23:15.006Z,30.00
2022-09-12T14:25:47.859Z,30.60
2022-09-12T14:28:23.653Z,31.00
2022-09-12T14:31:02.117Z,31.20
2022-09-12T14:33:52.560Z,31.10
2022-09-12T14:36:22.633Z,31.10
2022-09-12T14:38:52.741Z,31.30
2022-09-12T14:41:29.701Z,31.50
2022-09-12T14:44:01.324Z,30.90
2022-09-12T14:46:35.807Z,30.80
2022-09-12T14:49:32.071Z,30.40
2022-09-12T14:52:02.578Z,30.50
2022-09-12T14:54:33.923Z,30.70
2022-09-12T14:57:07.357Z,31.80
2022-09-12T14:59:39.337Z,33.40
2022-09-12T15:02:21.559Z,34.90
2022-09-12T15:05:16.342Z,35.10
2022-09-12T15:07:58.999Z,35.30
2022-09-12T15:10:37.882Z,36.50
2022-09-12T15:13:12.138Z,37.20
2022-09-12T15:15:41.559Z,36.30
2022-09-12T15:18:08.954Z,34.80
2022-09-12T15:20:38.767Z,33.80
2022-09-12T15:23:13.323Z,33.20
2022-09-12T15:25:40.970Z,33.30
2022-09-12T15:28:18.991Z,34.40
2022-09-12T15:30:49.613Z,35.10
2022-09-12T15:33:18.420Z,36.10
2022-09-12T15:35:46.314Z,36.70
2022-09-12T15:38:13.859Z,37.20
2022-09-12T15:40:44.735Z,38.00
2022-09-12T15:43:13.946Z,38.30
2022-09-12T15:45:49.391Z,39.00
2022-09-12T15:48:16.554Z,39.00
2022-09-12T15:50:43.857Z,38.90
2022-09-12T15:53:16.423Z,38.90
2022-09-12T15:55:44.451Z,39.50
2022-09-12T15:58:12.292Z,38.80
2022-09-12T16:00:39.597Z,39.20
2022-09-12T16:03:07.272Z,39.10
2022-09-12T16:05:34.617Z,38.70
2022-09-12T16:08:02.046Z,39.20
2022-09-12T16:10:31.233Z,39.90
2022-09-12T16:12:59.488Z,39.60
2022-09-12T16:15:26.857Z,38.70
2022-09-12T16:17:54.421Z,38.70
2022-09-12T16:20:22.859Z,38.30
2022-09-12T16:22:50.244Z,38.50
2022-09-12T16:25:18.293Z,38.00
2022-09-12T16:27:45.655Z,36.80
2022-09-12T16:30:13.356Z,36.30
2022-09-12T16:32:40.757Z,36.00
2022-09-12T16:35:09.040Z,35.10
2022-09-12T16:37:36.394Z,35.30
2022-09-12T16:40:04.904Z,35.00
2022-09-12T16:42:32.294Z,35.40
2022-09-12T16:44:59.592Z,35.30
2022-09-12T16:47:26.808Z,35.20
2022-09-12T16:49:54.264Z,35.00
2022-09-12T16:52:21.497Z,34.50
2022-09-12T16:54:48.786Z,34.30
2022-09-12T16:57:16.400Z,34.00
2022-09-12T16:59:43.713Z,33.60
2022-09-12T17:02:15.034Z,33.30
2022-09-12T17:04:42.496Z,32.80
2022-09-12T17:07:10.196Z,32.10
2022-09-12T17:09:39.894Z,31.30
2022-09-12T17:12:07.358Z,30.30
2022-09-12T17:14:34.675Z,29.60
2022-09-12T17:17:02.007Z,29.50
2022-09-12T17:19:32.755Z,29.20
2022-09-12T17:22:01.017Z,28.60
2022-09-12T17:24:28.623Z,27.80
2022-09-12T17:26:57.441Z,27.10
2022-09-12T17:29:24.832Z,26.20
2022-09-12T17:31:52.209Z,25.40
2022-09-12T17:34:19.547Z,24.80
2022-09-12T17:36:48.527Z,24.20
2022-09-12T17:39:15.956Z,23.70
2022-09-12T17:41:45.833Z,23.10
2022-09-12T17:44:15.322Z,22.50
2022-09-12T17:46:43.762Z,22.10
2022-09-12T17:49:14.994Z,21.70
2022-09-12T17:51:44.039Z,21.30
2022-09-12T17:54:15.877Z,21.00
2022-09-12T17:56:45.562Z,20.70
2022-09-12T17:59:19.521Z,20.40
2022-09-12T18:02:05.431Z,20.10
2022-09-12T18:04:34.132Z,19.90
2022-09-12T18:07:01.560Z,19.70
2022-09-12T18:09:29.318Z,19.50
2022-09-12T18:11:57.456Z,19.40
2022-09-12T18:14:27.755Z,19.30
2022-09-12T18:16:57.260Z,19.10
2022-09-12T18:19:25.196Z,19.00
2022-09-12T18:21:52.988Z,18.90
2022-09-12T18:24:21.139Z,18.80
2022-09-12T18:26:49.654Z,18.70
2022-09-12T18:29:17.131Z,18.60
2022-09-12T18:31:46.905Z,18.60
2022-09-12T18:34:16.931Z,18.50
2022-09-12T18:36:47.578Z,18.30
2022-09-12T18:39:16.305Z,18.30
2022-09-12T18:41:44.037Z,18.20
2022-09-12T18:44:12.652Z,18.20
2022-09-12T18:46:40.748Z,18.10
2022-09-12T18:49:09.496Z,18.00
2022-09-12T18:51:40.462Z,18.00
2022-09-12T18:54:13.367Z,18.00
2022-09-12T18:56:43.640Z,18.00
2022-09-12T18:59:15.308Z,18.00
2022-09-12T19:01:43.338Z,17.90
2022-09-12T19:04:13.205Z,17.90
2022-09-12T19:06:43.132Z,17.90
2022-09-12T19:09:12.515Z,17.80
2022-09-12T19:11:42.630Z,17.80
2022-09-12T19:14:09.962Z,17.80
2022-09-12T19:16:37.699Z,17.70
2022-09-12T19:19:04.989Z,17.60
2022-09-12T19:21:34.384Z,17.60
2022-09-12T19:24:11.360Z,17.50
2022-09-12T19:26:39.374Z,17.50
2022-09-12T19:29:07.866Z,17.40
2022-09-12T19:31:35.474Z,17.30
2022-09-12T19:34:05.535Z,17.30
2022-09-12T19:36:44.994Z,17.30
2022-09-12T19:39:13.598Z,17.20
2022-09-12T19:41:40.860Z,17.20
2022-09-12T19:44:08.713Z,17.10
2022-09-12T19:46:36.071Z,17.10
2022-09-12T19:49:03.957Z,17.10
2022-09-12T19:51:31.567Z,17.10
2022-09-12T19:53:58.994Z,17.10
2022-09-12T19:56:26.285Z,17.10
2022-09-12T19:58:56.435Z,17.00
2022-09-12T20:01:28.617Z,17.00
2022-09-12T20:03:56.725Z,16.90
2022-09-12T20:06:23.996Z,16.90
2022-09-12T20:08:51.435Z,16.90
2022-09-12T20:11:20.927Z,16.90
2022-09-12T20:13:48.717Z,16.80
2022-09-12T20:16:21.639Z,16.80
2022-09-12T20:18:54.739Z,16.80
2022-09-12T20:21:25.527Z,16.70
2022-09-12T20:23:53.127Z,16.70
2022-09-12T20:26:20.649Z,16.60
2022-09-12T20:28:48.206Z,16.60
2022-09-12T20:31:16.791Z,16.50
2022-09-12T20:33:47.539Z,16.50
2022-09-12T20:36:18.938Z,16.50
2022-09-12T20:38:54.308Z,16.40
2022-09-12T20:41:22.690Z,16.40
2022-09-12T20:43:53.513Z,16.30
2022-09-12T20:46:22.484Z,16.30
2022-09-12T20:48:51.187Z,16.30
2022-09-12T20:51:19.846Z,16.30
2022-09-12T20:53:48.016Z,16.20
2022-09-12T20:56:15.390Z,16.20
2022-09-12T20:58:44.372Z,16.20
2022-09-12T21:01:13.642Z,16.10
2022-09-12T21:03:42.434Z,16.10
2022-09-12T21:06:12.624Z,16.10
2022-09-12T21:08:39.973Z,16.10
2022-09-12T21:11:07.492Z,16.10
2022-09-12T21:13:35.222Z,16.00
2022-09-12T21:16:05.525Z,16.00
2022-09-12T21:18:33.727Z,15.90
2022-09-12T21:21:01.351Z,15.90
2022-09-12T21:23:29.475Z,15.90
2022-09-12T21:25:58.560Z,15.90
2022-09-12T21:28:26.401Z,15.90
2022-09-12T21:30:57.390Z,15.90
2022-09-12T21:33:25.135Z,15.90
2022-09-12T21:35:53.689Z,15.80
2022-09-12T21:38:21.778Z,15.80
2022-09-12T21:40:52.175Z,15.80
2022-09-12T21:43:19.540Z,15.70
2022-09-12T21:45:46.873Z,15.70
2022-09-12T21:48:14.332Z,15.70
2022-09-12T21:50:41.685Z,15.70
2022-09-12T21:53:09.073Z,15.60
2022-09-12T21:55:36.569Z,15.60
2022-09-12T21:58:04.244Z,15.50
2022-09-12T22:00:31.631Z,15.50
2022-09-12T22:02:59.333Z,15.50
2022-09-12T22:05:30.121Z,15.50
2022-09-12T22:07:59.317Z,15.50
2022-09-12T22:10:28.721Z,15.40
2022-09-12T22:12:59.718Z,15.40
2022-09-12T22:15:42.811Z,15.40
2022-09-12T22:18:10.837Z,15.30
2022-09-12T22:20:38.521Z,15.40
2022-09-12T22:23:25.158Z,15.40
2022-09-12T22:25:56.510Z,15.30
2022-09-12T22:28:25.337Z,15.30
2022-09-12T22:30:54.703Z,15.30
2022-09-12T22:33:22.553Z,15.20
2022-09-12T22:35:50.376Z,15.20
2022-09-12T22:38:20.693Z,15.20
2022-09-12T22:40:48.306Z,15.10
2022-09-12T22:43:16.248Z,15.10
2022-09-12T22:45:44.448Z,15.10
2022-09-12T22:48:12.879Z,15.10
2022-09-12T22:50:40.819Z,15.10
2022-09-12T22:53:09.125Z,15.10
2022-09-12T22:55:36.631Z,15.00
2022-09-12T22:58:04.532Z,15.00
2022-09-12T23:00:32.370Z,15.00
2022-09-12T23:03:02.467Z,14.90
2022-09-12T23:05:29.971Z,14.90
2022-09-12T23:07:57.464Z,14.90
2022-09-12T23:10:26.222Z,14.80
2022-09-12T23:12:55.193Z,14.80
2022-09-12T23:15:22.525Z,14.70
2022-09-12T23:17:49.804Z,14.70
2022-09-12T23:20:17.125Z,14.70
2022-09-12T23:22:44.496Z,14.70
2022-09-12T23:25:12.202Z,14.70
2022-09-12T23:27:40.906Z,14.70
2022-09-12T23:30:11.490Z,14.70
2022-09-12T23:32:38.698Z,14.60
2022-09-12T23:35:06.426Z,14.60
2022-09-12T23:37:34.280Z,14.50
2022-09-12T23:40:01.977Z,14.50
2022-09-12T23:42:29.169Z,14.50
2022-09-12T23:44:56.368Z,14.50
2022-09-12T23:47:24.204Z,14.40
2022-09-12T23:49:54.193Z,14.40
2022-09-12T23:52:21.481Z,14.40
2022-09-12T23:54:48.710Z,14.30
2022-09-12T23:57:15.998Z,14.30
2022-09-12T23:59:43.249Z,14.30
